Terminal Aerodrome Forecast
Issued by NWS Shreveport, LA

Home | Current Version | Previous Version | Text Only | Print | Product List | Glossary On
Versions: 1 2 3 4 5 6 7 8 9 10 11 12 13 14 15 16 17 18 19 20 21 22 23
403
FTUS44 KSHV 201807 RRA
TAFSHV
TAF
KSHV 201807Z 2018/2118 22012G18KT P6SM SCT250
     FM210000 18007KT P6SM SCT100 BKN250
     FM210400 18007KT P6SM SCT050 BKN100 OVC250
     FM210600 18005KT P6SM VCSH BKN030 BKN080 OVC120
     FM210900 19003KT 4SM BR BKN015
     FM211200 19003KT 5SM BR OVC009
     FM211500 23005KT P6SM OVC015=

USA.gov is the U.S. government's official web portal to all federal, state and local government web resources and services.